This is the latest recevied weather packets stored in our database for station/object LIPZ. If no packets are shown the sender has not sent any weather packets the latest 10 day(s).
| Time | Temp. | Humidity | Pressure | Rain* | Wind** | Luminosity | Snow |
|---|---|---|---|---|---|---|---|
| 1777714204 | 17.22° C | 48% | 1025 hPa | - | - | - | - |
| 1777711504 | 16.11° C | 51% | 1026 hPa | - | - | - | - |
| 1777710604 | 16.11° C | 51% | 1026 hPa | - | - | - | - |
| 1777709704 | 15° C | 67% | 1026 hPa | - | - | - | - |
| 1777707904 | 13.89° C | 62% | 1026 hPa | - | - | - | - |
| 1777707004 | 13.89° C | 62% | 1026 hPa | - | - | - | - |
| 1777705204 | 12.78° C | 62% | 1026 hPa | - | - | - | - |
| 1777704304 | 12.22° C | 62% | 1026 hPa | - | - | - | - |
| 1777703404 | 12.22° C | 62% | 1026 hPa | - | - | - | - |
| 1777701604 | 11.11° C | 66% | 1026 hPa | - | - | - | - |
| 1777700704 | 10° C | 66% | 1026 hPa | - | - | - | - |
| 1777699805 | 10° C | 66% | 1026 hPa | - | - | - | - |
| 1777698904 | 10° C | 66% | 1026 hPa | - | - | - | - |
| 1777697105 | 8.89° C | 70% | 1026 hPa | - | - | - | - |
| 1777696205 | 8.89° C | 70% | 1026 hPa | - | - | - | - |
| 1777695304 | 8.89° C | 70% | 1026 hPa | - | - | - | - |
| 1777692604 | 8.89° C | 76% | 1026 hPa | - | - | - | - |
| 1777689904 | 11.11° C | 62% | 1026 hPa | - | - | - | - |
| 1777689005 | 11.11° C | 62% | 1026 hPa | - | - | - | - |
| 1777688104 | 11.11° C | 71% | 1026 hPa | - | - | - | - |
| 1777687204 | 11.11° C | 71% | 1026 hPa | - | - | - | - |
| 1777686305 | 11.11° C | 81% | 1026 hPa | - | - | - | - |
| 1777685404 | 11.11° C | 81% | 1026 hPa | - | - | - | - |
| 1777684504 | 12.22° C | 71% | 1026 hPa | - | - | - | - |
| 1777683604 | 12.22° C | 71% | 1026 hPa | - | - | - | - |
* Rain since midnight (hover to see other rain measurements)
** Current wind speed in m/s (hover to see current wind gust speed)